Wetter & Webcam

Wetterdaten Diepholz (ETND)

METAR
Forecast for: AMD Text: AMD ETND 221325Z 2211/2220 22005KT 9999 NSW SCT040 BKN120 CANCEL 1330 BY ETGL Forecast period: 1100 to 2000 UTC 22 July 2019 Forecast type: FROM: standard forecast or significant change Winds: from the SW (220 degrees) at 6 MPH (5 knots; 2.6 m/s) Visibility: 6 or more miles 10+ km) Ceiling: 12000 feet AGL Clouds: scattered clouds at 4000 feet AGL =
broken clouds at 12000 feet AGL Weather: NSW  (no significant weather)
Sunrise (SR) / Sunset (SS)
03:30 / 19:35 UTC

Wetterdaten Bremen (EDDW)

METAR
METAR text: EDDW 222050Z 03005KT 9999 FEW045 21/17 Q1022 NOSIG Conditions at: EDDW (BREMEN , DE) observed 2050 UTC 22 July 2019 Temperature: 21.0°C (70°F) Dewpoint: 17.0°C (63°F) [RH = 78%] Pressure (altimeter): 30.18 inches Hg (1022.0 mb) Winds: from the NNE (30 degrees) at 6 MPH (5 knots; 2.6 m/s) Visibility: 6 or more miles (10+ km) Ceiling: at least 12,000 feet AGL Clouds: few clouds at 4500 feet AGL Weather: no significant weather observed at this time Forecast for: EDDW (BREMEN , DE) Text: EDDW 221700Z 2218/2318 27010KT 9999 FEW040 Forecast period: 1800 UTC 22 July 2019 to 1800 UTC 23 July 2019 Forecast type: FROM: standard forecast or significant change Winds: from the W (270 degrees) at 12 MPH (10 knots; 5.1 m/s) Visibility: 6 or more miles 10+ km) Ceiling: at least 12,000 feet AGL Clouds: few clouds at 4000 feet AGL Weather: no significant weather forecast for this period Text: BECMG 2218/2221 26004KT Forecast period: 1800 UTC 22 July 2019 to 1800 UTC 23 July 2019 Forecast type: BECOMING: Conditions expected to become as follows by 2100 UTC 22 July 2019 Winds: from the W (260 degrees) at 5 MPH (4 knots; 2.1 m/s) Visibility: 6 or more miles 10+ km) Ceiling: at least 12,000 feet AGL Clouds: few clouds at 4000 feet AGL Weather: no significant weather forecast for this period Text: TEMPO 2223/2305 2500 BCFG Forecast period: 2300 UTC 22 July 2019 to 0500 UTC 23 July 2019 Forecast type: TEMPORARY: The following changes expected for less than half the time period Visibility: 1.55 miles (2.49 km) Ceiling: unknown Clouds: missing Weather: BCFG  (patches of fog) Text: PROB30 Forecast period: 0200 to 0500 UTC 23 July 2019 Forecast type: TEMPORARY: The following changes expected for less than half the time period Visibility: 0.37 miles (0.60 km) Ceiling: unknown Clouds: missing Weather: FG  (fog)

Copyright © 2017 Flugplatz Diepholz-Dümmerland

© 2017 Flugplatz Diepholz-Dümmerland